sensor_id;sensor_type;location;lat;lon;timestamp;temperature;humidity
39503;DHT22;26970;49.900;10.774;2023-08-08T00:00:09;12.30;99.90
39503;DHT22;26970;49.900;10.774;2023-08-08T00:02:35;12.30;99.90
39503;DHT22;26970;49.900;10.774;2023-08-08T00:05:01;12.30;99.90
39503;DHT22;26970;49.900;10.774;2023-08-08T00:07:27;12.30;99.90
39503;DHT22;26970;49.900;10.774;2023-08-08T00:09:56;12.30;99.90
39503;DHT22;26970;49.900;10.774;2023-08-08T00:12:22;12.20;99.90
39503;DHT22;26970;49.900;10.774;2023-08-08T00:14:48;12.20;99.90
39503;DHT22;26970;49.900;10.774;2023-08-08T00:17:13;12.20;99.90
39503;DHT22;26970;49.900;10.774;2023-08-08T00:19:39;12.20;99.90
39503;DHT22;26970;49.900;10.774;2023-08-08T00:22:05;12.10;99.90
39503;DHT22;26970;49.900;10.774;2023-08-08T00:24:31;12.10;99.90
39503;DHT22;26970;49.900;10.774;2023-08-08T00:26:56;12.10;99.90
39503;DHT22;26970;49.900;10.774;2023-08-08T00:29:22;12.00;99.90
39503;DHT22;26970;49.900;10.774;2023-08-08T00:31:47;12.00;99.90
39503;DHT22;26970;49.900;10.774;2023-08-08T00:34:13;11.90;99.90
39503;DHT22;26970;49.900;10.774;2023-08-08T00:36:39;11.90;99.90
39503;DHT22;26970;49.900;10.774;2023-08-08T00:39:04;11.80;99.90
39503;DHT22;26970;49.900;10.774;2023-08-08T00:41:30;11.80;99.90
39503;DHT22;26970;49.900;10.774;2023-08-08T00:43:55;11.80;99.90
39503;DHT22;26970;49.900;10.774;2023-08-08T00:46:22;11.70;99.90
39503;DHT22;26970;49.900;10.774;2023-08-08T00:48:49;11.70;99.90
39503;DHT22;26970;49.900;10.774;2023-08-08T00:51:15;11.60;99.90
39503;DHT22;26970;49.900;10.774;2023-08-08T00:53:42;11.60;99.90
39503;DHT22;26970;49.900;10.774;2023-08-08T00:56:09;11.50;99.90
39503;DHT22;26970;49.900;10.774;2023-08-08T00:58:35;11.60;99.90
39503;DHT22;26970;49.900;10.774;2023-08-08T01:01:01;11.50;99.90
39503;DHT22;26970;49.900;10.774;2023-08-08T01:03:26;11.50;99.90
39503;DHT22;26970;49.900;10.774;2023-08-08T01:06:19;11.60;99.90
39503;DHT22;26970;49.900;10.774;2023-08-08T01:09:00;11.60;99.90
39503;DHT22;26970;49.900;10.774;2023-08-08T01:11:29;11.60;99.90
39503;DHT22;26970;49.900;10.774;2023-08-08T01:13:55;11.60;99.90
39503;DHT22;26970;49.900;10.774;2023-08-08T01:16:22;11.60;99.90
39503;DHT22;26970;49.900;10.774;2023-08-08T01:18:49;11.60;99.90
39503;DHT22;26970;49.900;10.774;2023-08-08T01:21:16;11.60;99.90
39503;DHT22;26970;49.900;10.774;2023-08-08T01:23:52;11.60;99.90
39503;DHT22;26970;49.900;10.774;2023-08-08T01:26:19;11.60;99.90
39503;DHT22;26970;49.900;10.774;2023-08-08T01:28:45;11.50;99.90
39503;DHT22;26970;49.900;10.774;2023-08-08T01:31:11;11.50;99.90
39503;DHT22;26970;49.900;10.774;2023-08-08T01:33:37;11.50;99.90
39503;DHT22;26970;49.900;10.774;2023-08-08T01:36:12;11.50;99.90
39503;DHT22;26970;49.900;10.774;2023-08-08T01:38:44;11.60;99.90
39503;DHT22;26970;49.900;10.774;2023-08-08T01:41:11;11.40;99.90
39503;DHT22;26970;49.900;10.774;2023-08-08T01:43:38;11.50;99.90
39503;DHT22;26970;49.900;10.774;2023-08-08T01:46:04;11.50;99.90
39503;DHT22;26970;49.900;10.774;2023-08-08T01:48:30;11.50;99.90
39503;DHT22;26970;49.900;10.774;2023-08-08T01:50:56;11.50;99.90
39503;DHT22;26970;49.900;10.774;2023-08-08T01:53:22;11.50;99.90
39503;DHT22;26970;49.900;10.774;2023-08-08T01:55:47;11.40;99.90
39503;DHT22;26970;49.900;10.774;2023-08-08T01:58:13;11.50;99.90
39503;DHT22;26970;49.900;10.774;2023-08-08T02:00:38;11.50;99.90
39503;DHT22;26970;49.900;10.774;2023-08-08T02:03:06;11.50;99.90
39503;DHT22;26970;49.900;10.774;2023-08-08T02:05:32;11.50;99.90
39503;DHT22;26970;49.900;10.774;2023-08-08T02:07:57;11.60;99.90
39503;DHT22;26970;49.900;10.774;2023-08-08T02:10:23;11.60;99.90
39503;DHT22;26970;49.900;10.774;2023-08-08T02:12:49;11.60;99.90
39503;DHT22;26970;49.900;10.774;2023-08-08T02:15:14;11.70;99.90
39503;DHT22;26970;49.900;10.774;2023-08-08T02:17:40;11.70;99.90
39503;DHT22;26970;49.900;10.774;2023-08-08T02:20:06;11.70;99.90
39503;DHT22;26970;49.900;10.774;2023-08-08T02:22:32;11.70;99.90
39503;DHT22;26970;49.900;10.774;2023-08-08T02:24:58;11.70;99.90
39503;DHT22;26970;49.900;10.774;2023-08-08T02:27:23;11.70;99.90
39503;DHT22;26970;49.900;10.774;2023-08-08T02:29:49;11.70;99.90
39503;DHT22;26970;49.900;10.774;2023-08-08T02:32:15;11.60;99.90
39503;DHT22;26970;49.900;10.774;2023-08-08T02:34:40;11.60;99.90
39503;DHT22;26970;49.900;10.774;2023-08-08T02:37:06;11.60;99.90
39503;DHT22;26970;49.900;10.774;2023-08-08T02:39:32;11.60;99.90
39503;DHT22;26970;49.900;10.774;2023-08-08T02:41:57;11.50;99.90
39503;DHT22;26970;49.900;10.774;2023-08-08T02:44:23;11.60;99.90
39503;DHT22;26970;49.900;10.774;2023-08-08T02:46:48;11.50;99.90
39503;DHT22;26970;49.900;10.774;2023-08-08T02:49:14;11.50;99.90
39503;DHT22;26970;49.900;10.774;2023-08-08T02:51:40;11.50;99.90
39503;DHT22;26970;49.900;10.774;2023-08-08T02:54:06;11.50;99.90
39503;DHT22;26970;49.900;10.774;2023-08-08T02:56:31;11.40;99.90
39503;DHT22;26970;49.900;10.774;2023-08-08T02:58:57;11.50;99.90
39503;DHT22;26970;49.900;10.774;2023-08-08T03:01:23;11.40;99.90
39503;DHT22;26970;49.900;10.774;2023-08-08T03:03:49;11.50;99.90
39503;DHT22;26970;49.900;10.774;2023-08-08T03:06:15;11.50;99.90
39503;DHT22;26970;49.900;10.774;2023-08-08T03:08:40;11.40;99.90
39503;DHT22;26970;49.900;10.774;2023-08-08T03:11:06;11.40;99.90
39503;DHT22;26970;49.900;10.774;2023-08-08T03:13:31;11.40;99.90
39503;DHT22;26970;49.900;10.774;2023-08-08T03:15:57;11.40;99.90
39503;DHT22;26970;49.900;10.774;2023-08-08T03:18:23;11.50;99.90
39503;DHT22;26970;49.900;10.774;2023-08-08T03:20:49;11.40;99.90
39503;DHT22;26970;49.900;10.774;2023-08-08T03:23:15;11.40;99.90
39503;DHT22;26970;49.900;10.774;2023-08-08T03:25:40;11.40;99.90
39503;DHT22;26970;49.900;10.774;2023-08-08T03:28:06;11.40;99.90
39503;DHT22;26970;49.900;10.774;2023-08-08T03:30:32;11.40;99.90
39503;DHT22;26970;49.900;10.774;2023-08-08T03:32:57;11.40;99.90
39503;DHT22;26970;49.900;10.774;2023-08-08T03:35:23;11.40;99.90
39503;DHT22;26970;49.900;10.774;2023-08-08T03:37:48;11.30;99.90
39503;DHT22;26970;49.900;10.774;2023-08-08T03:40:14;11.30;99.90
39503;DHT22;26970;49.900;10.774;2023-08-08T03:42:40;11.30;99.90
39503;DHT22;26970;49.900;10.774;2023-08-08T03:45:06;11.40;99.90
39503;DHT22;26970;49.900;10.774;2023-08-08T03:47:31;11.30;99.90
39503;DHT22;26970;49.900;10.774;2023-08-08T03:49:57;11.30;99.90
39503;DHT22;26970;49.900;10.774;2023-08-08T03:52:23;11.30;99.90
39503;DHT22;26970;49.900;10.774;2023-08-08T03:54:50;11.30;99.90
39503;DHT22;26970;49.900;10.774;2023-08-08T03:57:15;11.30;99.90
39503;DHT22;26970;49.900;10.774;2023-08-08T03:59:41;11.30;99.90
39503;DHT22;26970;49.900;10.774;2023-08-08T04:02:06;11.30;99.90
39503;DHT22;26970;49.900;10.774;2023-08-08T04:04:32;11.20;99.90
39503;DHT22;26970;49.900;10.774;2023-08-08T04:06:57;11.30;99.90
39503;DHT22;26970;49.900;10.774;2023-08-08T04:09:23;11.20;99.90
39503;DHT22;26970;49.900;10.774;2023-08-08T04:11:49;11.30;99.90
39503;DHT22;26970;49.900;10.774;2023-08-08T04:14:14;11.30;99.90
39503;DHT22;26970;49.900;10.774;2023-08-08T04:16:40;11.30;99.90
39503;DHT22;26970;49.900;10.774;2023-08-08T04:19:05;11.30;99.90
39503;DHT22;26970;49.900;10.774;2023-08-08T04:21:31;11.20;99.90
39503;DHT22;26970;49.900;10.774;2023-08-08T04:24:00;11.30;99.90
39503;DHT22;26970;49.900;10.774;2023-08-08T04:26:26;11.30;99.90
39503;DHT22;26970;49.900;10.774;2023-08-08T04:28:51;11.40;99.90
39503;DHT22;26970;49.900;10.774;2023-08-08T04:31:17;11.40;99.90
39503;DHT22;26970;49.900;10.774;2023-08-08T04:33:43;11.40;99.90
39503;DHT22;26970;49.900;10.774;2023-08-08T04:36:09;11.50;99.90
39503;DHT22;26970;49.900;10.774;2023-08-08T04:38:34;11.50;99.90
39503;DHT22;26970;49.900;10.774;2023-08-08T04:41:00;11.50;99.90
39503;DHT22;26970;49.900;10.774;2023-08-08T04:43:25;11.50;99.90
39503;DHT22;26970;49.900;10.774;2023-08-08T04:45:53;11.50;99.90
39503;DHT22;26970;49.900;10.774;2023-08-08T04:48:18;11.60;99.90
39503;DHT22;26970;49.900;10.774;2023-08-08T04:50:46;11.60;99.90
39503;DHT22;26970;49.900;10.774;2023-08-08T04:53:11;11.60;99.90
39503;DHT22;26970;49.900;10.774;2023-08-08T04:55:37;11.70;99.90
39503;DHT22;26970;49.900;10.774;2023-08-08T04:58:03;11.70;99.90
39503;DHT22;26970;49.900;10.774;2023-08-08T05:00:28;11.70;99.90
39503;DHT22;26970;49.900;10.774;2023-08-08T05:02:54;11.70;99.90
39503;DHT22;26970;49.900;10.774;2023-08-08T05:05:19;11.70;99.90
39503;DHT22;26970;49.900;10.774;2023-08-08T05:07:45;11.70;99.90
39503;DHT22;26970;49.900;10.774;2023-08-08T05:10:10;11.80;99.90
39503;DHT22;26970;49.900;10.774;2023-08-08T05:12:36;11.90;99.90
39503;DHT22;26970;49.900;10.774;2023-08-08T05:15:02;12.60;99.90
39503;DHT22;26970;49.900;10.774;2023-08-08T05:17:30;13.10;99.90
39503;DHT22;26970;49.900;10.774;2023-08-08T05:19:56;13.80;99.90
39503;DHT22;26970;49.900;10.774;2023-08-08T05:22:22;14.40;99.90
39503;DHT22;26970;49.900;10.774;2023-08-08T05:24:47;15.00;99.90
39503;DHT22;26970;49.900;10.774;2023-08-08T05:27:13;15.20;99.90
39503;DHT22;26970;49.900;10.774;2023-08-08T05:29:39;15.50;99.90
39503;DHT22;26970;49.900;10.774;2023-08-08T05:32:06;15.70;99.90
39503;DHT22;26970;49.900;10.774;2023-08-08T05:34:33;15.60;99.90
39503;DHT22;26970;49.900;10.774;2023-08-08T05:36:59;15.80;99.90
39503;DHT22;26970;49.900;10.774;2023-08-08T05:39:24;15.80;99.90
39503;DHT22;26970;49.900;10.774;2023-08-08T05:41:50;15.70;99.90
39503;DHT22;26970;49.900;10.774;2023-08-08T05:44:15;15.80;99.90
39503;DHT22;26970;49.900;10.774;2023-08-08T05:46:41;15.70;99.90
39503;DHT22;26970;49.900;10.774;2023-08-08T05:49:06;15.80;99.90
39503;DHT22;26970;49.900;10.774;2023-08-08T05:51:32;15.90;99.90
39503;DHT22;26970;49.900;10.774;2023-08-08T05:53:58;16.00;99.90
39503;DHT22;26970;49.900;10.774;2023-08-08T05:56:23;16.10;99.90
39503;DHT22;26970;49.900;10.774;2023-08-08T05:58:49;16.10;99.90
39503;DHT22;26970;49.900;10.774;2023-08-08T06:01:15;16.00;99.90
39503;DHT22;26970;49.900;10.774;2023-08-08T06:03:40;16.20;99.90
39503;DHT22;26970;49.900;10.774;2023-08-08T06:06:07;16.10;99.90
39503;DHT22;26970;49.900;10.774;2023-08-08T06:08:33;16.00;99.90
39503;DHT22;26970;49.900;10.774;2023-08-08T06:10:59;16.10;99.90
39503;DHT22;26970;49.900;10.774;2023-08-08T06:13:24;16.00;99.90
39503;DHT22;26970;49.900;10.774;2023-08-08T06:15:50;16.20;99.90
39503;DHT22;26970;49.900;10.774;2023-08-08T06:18:16;16.10;99.90
39503;DHT22;26970;49.900;10.774;2023-08-08T06:20:42;16.10;99.90
39503;DHT22;26970;49.900;10.774;2023-08-08T06:23:08;16.20;99.90
39503;DHT22;26970;49.900;10.774;2023-08-08T06:25:33;16.00;99.90
39503;DHT22;26970;49.900;10.774;2023-08-08T06:27:59;16.00;99.90
39503;DHT22;26970;49.900;10.774;2023-08-08T06:30:24;16.10;99.90
39503;DHT22;26970;49.900;10.774;2023-08-08T06:32:50;16.20;99.90
39503;DHT22;26970;49.900;10.774;2023-08-08T06:35:15;16.30;99.90
39503;DHT22;26970;49.900;10.774;2023-08-08T06:37:42;16.40;99.90
39503;DHT22;26970;49.900;10.774;2023-08-08T06:40:09;16.60;99.90
39503;DHT22;26970;49.900;10.774;2023-08-08T06:42:36;16.70;99.90
39503;DHT22;26970;49.900;10.774;2023-08-08T06:45:01;16.60;99.90
39503;DHT22;26970;49.900;10.774;2023-08-08T06:47:27;16.60;99.90
39503;DHT22;26970;49.900;10.774;2023-08-08T06:49:53;16.70;99.90
39503;DHT22;26970;49.900;10.774;2023-08-08T06:52:18;16.70;99.90
39503;DHT22;26970;49.900;10.774;2023-08-08T06:54:44;16.80;99.90
39503;DHT22;26970;49.900;10.774;2023-08-08T06:57:09;16.90;99.90
39503;DHT22;26970;49.900;10.774;2023-08-08T06:59:35;17.00;99.90
39503;DHT22;26970;49.900;10.774;2023-08-08T07:02:00;17.10;99.90
39503;DHT22;26970;49.900;10.774;2023-08-08T07:04:26;17.30;99.90
39503;DHT22;26970;49.900;10.774;2023-08-08T07:06:51;17.20;99.90
39503;DHT22;26970;49.900;10.774;2023-08-08T07:09:17;17.10;99.90
39503;DHT22;26970;49.900;10.774;2023-08-08T07:11:42;17.10;99.90
39503;DHT22;26970;49.900;10.774;2023-08-08T07:14:08;17.10;99.90
39503;DHT22;26970;49.900;10.774;2023-08-08T07:16:34;17.20;99.90
39503;DHT22;26970;49.900;10.774;2023-08-08T07:19:00;17.30;99.90
39503;DHT22;26970;49.900;10.774;2023-08-08T07:21:25;17.60;99.90
39503;DHT22;26970;49.900;10.774;2023-08-08T07:23:51;17.70;99.90
39503;DHT22;26970;49.900;10.774;2023-08-08T07:26:17;17.80;99.90
39503;DHT22;26970;49.900;10.774;2023-08-08T07:28:43;17.60;99.90
39503;DHT22;26970;49.900;10.774;2023-08-08T07:31:08;17.60;99.90
39503;DHT22;26970;49.900;10.774;2023-08-08T07:33:34;17.70;99.90
39503;DHT22;26970;49.900;10.774;2023-08-08T07:35:59;17.70;99.90
39503;DHT22;26970;49.900;10.774;2023-08-08T07:38:25;17.70;99.90
39503;DHT22;26970;49.900;10.774;2023-08-08T07:40:50;17.80;99.90
39503;DHT22;26970;49.900;10.774;2023-08-08T07:43:16;18.10;99.90
39503;DHT22;26970;49.900;10.774;2023-08-08T07:45:42;18.00;99.90
39503;DHT22;26970;49.900;10.774;2023-08-08T07:48:08;18.00;99.90
39503;DHT22;26970;49.900;10.774;2023-08-08T07:50:33;18.10;99.90
39503;DHT22;26970;49.900;10.774;2023-08-08T07:52:59;17.80;99.90
39503;DHT22;26970;49.900;10.774;2023-08-08T07:55:25;17.80;99.90
39503;DHT22;26970;49.900;10.774;2023-08-08T07:57:51;18.00;99.90
39503;DHT22;26970;49.900;10.774;2023-08-08T08:00:17;17.70;99.90
39503;DHT22;26970;49.900;10.774;2023-08-08T08:02:45;17.50;99.90
39503;DHT22;26970;49.900;10.774;2023-08-08T08:05:12;17.50;99.90
39503;DHT22;26970;49.900;10.774;2023-08-08T08:07:38;17.70;99.90
39503;DHT22;26970;49.900;10.774;2023-08-08T08:10:06;18.10;99.90
39503;DHT22;26970;49.900;10.774;2023-08-08T08:12:33;18.00;99.90
39503;DHT22;26970;49.900;10.774;2023-08-08T08:14:59;18.20;99.90
39503;DHT22;26970;49.900;10.774;2023-08-08T08:17:24;18.20;99.90
39503;DHT22;26970;49.900;10.774;2023-08-08T08:19:51;18.20;99.90
39503;DHT22;26970;49.900;10.774;2023-08-08T08:22:17;18.20;99.90
39503;DHT22;26970;49.900;10.774;2023-08-08T08:24:42;18.00;99.90
39503;DHT22;26970;49.900;10.774;2023-08-08T08:27:08;17.80;99.90
39503;DHT22;26970;49.900;10.774;2023-08-08T08:29:33;17.80;99.90
39503;DHT22;26970;49.900;10.774;2023-08-08T08:31:59;17.90;99.90
39503;DHT22;26970;49.900;10.774;2023-08-08T08:34:25;17.70;99.90
39503;DHT22;26970;49.900;10.774;2023-08-08T08:36:50;17.80;99.90
39503;DHT22;26970;49.900;10.774;2023-08-08T08:39:16;17.90;99.90
39503;DHT22;26970;49.900;10.774;2023-08-08T08:41:43;18.20;99.90
39503;DHT22;26970;49.900;10.774;2023-08-08T08:44:09;18.40;99.90
39503;DHT22;26970;49.900;10.774;2023-08-08T08:46:35;18.60;99.90
39503;DHT22;26970;49.900;10.774;2023-08-08T08:49:02;18.80;99.90
39503;DHT22;26970;49.900;10.774;2023-08-08T08:51:30;19.00;99.90
39503;DHT22;26970;49.900;10.774;2023-08-08T08:53:58;19.10;99.90
39503;DHT22;26970;49.900;10.774;2023-08-08T08:56:24;19.30;99.90
39503;DHT22;26970;49.900;10.774;2023-08-08T08:58:51;19.50;99.90
39503;DHT22;26970;49.900;10.774;2023-08-08T09:01:17;19.30;99.90
39503;DHT22;26970;49.900;10.774;2023-08-08T09:03:45;19.40;99.90
39503;DHT22;26970;49.900;10.774;2023-08-08T09:06:11;19.20;99.90
39503;DHT22;26970;49.900;10.774;2023-08-08T09:08:37;18.80;99.90
39503;DHT22;26970;49.900;10.774;2023-08-08T09:11:03;18.60;99.90
39503;DHT22;26970;49.900;10.774;2023-08-08T09:13:39;18.50;99.90
39503;DHT22;26970;49.900;10.774;2023-08-08T09:16:07;18.70;99.90
39503;DHT22;26970;49.900;10.774;2023-08-08T09:18:33;18.90;99.90
39503;DHT22;26970;49.900;10.774;2023-08-08T09:21:00;19.10;99.90
39503;DHT22;26970;49.900;10.774;2023-08-08T09:23:25;19.30;99.90
39503;DHT22;26970;49.900;10.774;2023-08-08T09:25:51;19.40;99.90
39503;DHT22;26970;49.900;10.774;2023-08-08T09:28:17;19.20;99.90
39503;DHT22;26970;49.900;10.774;2023-08-08T09:30:43;19.00;99.90
39503;DHT22;26970;49.900;10.774;2023-08-08T09:33:09;18.90;99.90
39503;DHT22;26970;49.900;10.774;2023-08-08T09:35:38;18.80;99.90
39503;DHT22;26970;49.900;10.774;2023-08-08T09:38:04;19.00;99.90
39503;DHT22;26970;49.900;10.774;2023-08-08T09:40:30;19.00;99.90
39503;DHT22;26970;49.900;10.774;2023-08-08T09:42:56;18.90;99.90
39503;DHT22;26970;49.900;10.774;2023-08-08T09:45:22;18.90;99.90
39503;DHT22;26970;49.900;10.774;2023-08-08T09:47:50;18.80;99.90
39503;DHT22;26970;49.900;10.774;2023-08-08T09:50:16;19.10;99.90
39503;DHT22;26970;49.900;10.774;2023-08-08T09:52:43;19.40;99.90
39503;DHT22;26970;49.900;10.774;2023-08-08T09:55:10;19.40;99.90
39503;DHT22;26970;49.900;10.774;2023-08-08T09:57:38;19.40;99.90
39503;DHT22;26970;49.900;10.774;2023-08-08T10:00:05;19.40;99.90
39503;DHT22;26970;49.900;10.774;2023-08-08T10:02:35;19.40;99.90
39503;DHT22;26970;49.900;10.774;2023-08-08T10:05:04;19.50;99.90
39503;DHT22;26970;49.900;10.774;2023-08-08T10:07:29;19.70;99.90
39503;DHT22;26970;49.900;10.774;2023-08-08T10:09:56;19.60;99.90
39503;DHT22;26970;49.900;10.774;2023-08-08T10:12:23;19.70;99.90
39503;DHT22;26970;49.900;10.774;2023-08-08T10:14:51;19.90;99.90
39503;DHT22;26970;49.900;10.774;2023-08-08T10:17:18;19.70;99.90
39503;DHT22;26970;49.900;10.774;2023-08-08T10:19:56;19.50;99.90
39503;DHT22;26970;49.900;10.774;2023-08-08T10:22:24;19.70;99.90
39503;DHT22;26970;49.900;10.774;2023-08-08T10:24:52;19.70;99.90
39503;DHT22;26970;49.900;10.774;2023-08-08T10:27:35;19.50;99.90
39503;DHT22;26970;49.900;10.774;2023-08-08T10:30:06;19.50;99.90
39503;DHT22;26970;49.900;10.774;2023-08-08T10:32:45;19.50;99.90
39503;DHT22;26970;49.900;10.774;2023-08-08T10:35:14;19.60;99.90
39503;DHT22;26970;49.900;10.774;2023-08-08T10:37:40;19.80;99.90
39503;DHT22;26970;49.900;10.774;2023-08-08T10:40:07;19.90;99.90
39503;DHT22;26970;49.900;10.774;2023-08-08T10:42:41;19.80;99.90
39503;DHT22;26970;49.900;10.774;2023-08-08T10:45:12;19.90;99.90
39503;DHT22;26970;49.900;10.774;2023-08-08T10:47:38;20.10;99.90
39503;DHT22;26970;49.900;10.774;2023-08-08T10:52:52;20.00;99.90
39503;DHT22;26970;49.900;10.774;2023-08-08T10:57:53;20.10;99.90
39503;DHT22;26970;49.900;10.774;2023-08-08T11:00:20;20.10;99.90
39503;DHT22;26970;49.900;10.774;2023-08-08T11:02:48;20.10;99.90
39503;DHT22;26970;49.900;10.774;2023-08-08T11:05:14;19.90;99.90
39503;DHT22;26970;49.900;10.774;2023-08-08T11:07:41;20.00;99.90
39503;DHT22;26970;49.900;10.774;2023-08-08T11:10:08;19.90;99.90
39503;DHT22;26970;49.900;10.774;2023-08-08T11:12:34;19.90;99.90
39503;DHT22;26970;49.900;10.774;2023-08-08T11:14:59;19.70;99.90
39503;DHT22;26970;49.900;10.774;2023-08-08T11:17:25;19.70;99.90
39503;DHT22;26970;49.900;10.774;2023-08-08T11:19:51;19.70;99.90
39503;DHT22;26970;49.900;10.774;2023-08-08T11:22:16;19.70;99.90
39503;DHT22;26970;49.900;10.774;2023-08-08T11:24:42;20.10;99.90
39503;DHT22;26970;49.900;10.774;2023-08-08T11:27:07;20.40;99.90
39503;DHT22;26970;49.900;10.774;2023-08-08T11:29:33;20.40;99.90
39503;DHT22;26970;49.900;10.774;2023-08-08T11:32:02;20.40;99.90
39503;DHT22;26970;49.900;10.774;2023-08-08T11:34:31;20.30;99.90
39503;DHT22;26970;49.900;10.774;2023-08-08T11:36:58;20.20;99.90
39503;DHT22;26970;49.900;10.774;2023-08-08T11:39:24;20.10;99.90
39503;DHT22;26970;49.900;10.774;2023-08-08T11:41:50;19.90;99.90
39503;DHT22;26970;49.900;10.774;2023-08-08T11:44:16;20.00;99.90
39503;DHT22;26970;49.900;10.774;2023-08-08T11:46:45;20.00;99.90
39503;DHT22;26970;49.900;10.774;2023-08-08T11:49:14;20.00;99.90
39503;DHT22;26970;49.900;10.774;2023-08-08T11:51:39;19.80;99.90
39503;DHT22;26970;49.900;10.774;2023-08-08T11:54:07;19.70;99.90
39503;DHT22;26970;49.900;10.774;2023-08-08T11:56:34;19.80;99.90
39503;DHT22;26970;49.900;10.774;2023-08-08T11:59:00;19.70;99.90
39503;DHT22;26970;49.900;10.774;2023-08-08T12:01:27;19.70;99.90
39503;DHT22;26970;49.900;10.774;2023-08-08T12:03:53;19.60;99.90
39503;DHT22;26970;49.900;10.774;2023-08-08T12:06:20;19.60;99.90
39503;DHT22;26970;49.900;10.774;2023-08-08T12:08:47;19.80;99.90
39503;DHT22;26970;49.900;10.774;2023-08-08T12:11:14;19.90;99.90
39503;DHT22;26970;49.900;10.774;2023-08-08T12:13:44;20.20;99.90
39503;DHT22;26970;49.900;10.774;2023-08-08T12:16:11;20.40;99.90
39503;DHT22;26970;49.900;10.774;2023-08-08T12:18:38;20.70;99.90
39503;DHT22;26970;49.900;10.774;2023-08-08T12:21:10;21.00;99.90
39503;DHT22;26970;49.900;10.774;2023-08-08T12:23:36;21.00;99.90
39503;DHT22;26970;49.900;10.774;2023-08-08T12:26:03;20.90;99.90
39503;DHT22;26970;49.900;10.774;2023-08-08T12:28:30;20.70;99.90
39503;DHT22;26970;49.900;10.774;2023-08-08T12:30:55;20.60;99.90
39503;DHT22;26970;49.900;10.774;2023-08-08T12:33:21;20.40;99.90
39503;DHT22;26970;49.900;10.774;2023-08-08T12:35:48;20.30;99.90
39503;DHT22;26970;49.900;10.774;2023-08-08T12:38:14;20.10;99.90
39503;DHT22;26970;49.900;10.774;2023-08-08T12:40:39;20.00;99.90
39503;DHT22;26970;49.900;10.774;2023-08-08T12:43:05;20.10;99.90
39503;DHT22;26970;49.900;10.774;2023-08-08T12:45:30;20.00;99.90
39503;DHT22;26970;49.900;10.774;2023-08-08T12:47:56;19.70;99.90
39503;DHT22;26970;49.900;10.774;2023-08-08T12:50:22;19.60;99.90
39503;DHT22;26970;49.900;10.774;2023-08-08T12:52:47;19.70;99.90
39503;DHT22;26970;49.900;10.774;2023-08-08T12:55:13;19.80;99.90
39503;DHT22;26970;49.900;10.774;2023-08-08T12:57:40;20.00;99.90
39503;DHT22;26970;49.900;10.774;2023-08-08T13:00:06;19.90;99.90
39503;DHT22;26970;49.900;10.774;2023-08-08T13:02:34;19.90;99.90
39503;DHT22;26970;49.900;10.774;2023-08-08T13:04:59;19.80;99.90
39503;DHT22;26970;49.900;10.774;2023-08-08T13:07:25;19.90;99.90
39503;DHT22;26970;49.900;10.774;2023-08-08T13:09:51;19.90;99.90
39503;DHT22;26970;49.900;10.774;2023-08-08T13:12:16;20.00;99.90
39503;DHT22;26970;49.900;10.774;2023-08-08T13:14:42;20.00;99.90
39503;DHT22;26970;49.900;10.774;2023-08-08T13:17:07;19.90;99.90
39503;DHT22;26970;49.900;10.774;2023-08-08T13:19:34;19.80;99.90
39503;DHT22;26970;49.900;10.774;2023-08-08T13:22:00;19.80;99.90
39503;DHT22;26970;49.900;10.774;2023-08-08T13:24:25;19.80;99.90
39503;DHT22;26970;49.900;10.774;2023-08-08T13:26:51;19.80;99.90
39503;DHT22;26970;49.900;10.774;2023-08-08T13:29:17;19.80;99.90
39503;DHT22;26970;49.900;10.774;2023-08-08T13:31:42;19.70;99.90
39503;DHT22;26970;49.900;10.774;2023-08-08T13:34:09;19.80;99.90
39503;DHT22;26970;49.900;10.774;2023-08-08T13:36:34;19.70;99.90
39503;DHT22;26970;49.900;10.774;2023-08-08T13:39:00;19.60;99.90
39503;DHT22;26970;49.900;10.774;2023-08-08T13:41:25;19.40;99.90
39503;DHT22;26970;49.900;10.774;2023-08-08T13:43:51;19.40;99.90
39503;DHT22;26970;49.900;10.774;2023-08-08T13:46:17;19.50;99.90
39503;DHT22;26970;49.900;10.774;2023-08-08T13:48:42;19.70;99.90
39503;DHT22;26970;49.900;10.774;2023-08-08T13:51:08;20.00;99.90
39503;DHT22;26970;49.900;10.774;2023-08-08T13:53:34;19.80;99.90
39503;DHT22;26970;49.900;10.774;2023-08-08T13:56:00;19.90;99.90
39503;DHT22;26970;49.900;10.774;2023-08-08T13:58:25;19.90;99.90
39503;DHT22;26970;49.900;10.774;2023-08-08T14:00:51;20.00;99.90
39503;DHT22;26970;49.900;10.774;2023-08-08T14:03:17;20.20;99.90
39503;DHT22;26970;49.900;10.774;2023-08-08T14:05:43;20.10;99.90
39503;DHT22;26970;49.900;10.774;2023-08-08T14:08:09;20.10;99.90
39503;DHT22;26970;49.900;10.774;2023-08-08T14:10:35;20.20;99.90
39503;DHT22;26970;49.900;10.774;2023-08-08T14:13:01;20.20;99.90
39503;DHT22;26970;49.900;10.774;2023-08-08T14:15:27;20.10;99.90
39503;DHT22;26970;49.900;10.774;2023-08-08T14:17:54;19.90;99.90
39503;DHT22;26970;49.900;10.774;2023-08-08T14:20:19;19.80;99.90
39503;DHT22;26970;49.900;10.774;2023-08-08T14:22:46;19.60;99.90
39503;DHT22;26970;49.900;10.774;2023-08-08T14:25:12;19.40;99.90
39503;DHT22;26970;49.900;10.774;2023-08-08T14:27:38;19.30;99.90
39503;DHT22;26970;49.900;10.774;2023-08-08T14:30:04;19.40;99.90
39503;DHT22;26970;49.900;10.774;2023-08-08T14:32:30;19.40;99.90
39503;DHT22;26970;49.900;10.774;2023-08-08T14:34:56;19.60;99.90
39503;DHT22;26970;49.900;10.774;2023-08-08T14:37:21;19.80;99.90
39503;DHT22;26970;49.900;10.774;2023-08-08T14:39:47;20.00;99.90
39503;DHT22;26970;49.900;10.774;2023-08-08T14:42:13;20.00;99.90
39503;DHT22;26970;49.900;10.774;2023-08-08T14:44:38;20.00;99.90
39503;DHT22;26970;49.900;10.774;2023-08-08T14:47:04;19.90;99.90
39503;DHT22;26970;49.900;10.774;2023-08-08T14:49:30;19.80;99.90
39503;DHT22;26970;49.900;10.774;2023-08-08T14:51:56;19.60;99.90
39503;DHT22;26970;49.900;10.774;2023-08-08T14:54:21;19.40;99.90
39503;DHT22;26970;49.900;10.774;2023-08-08T14:56:47;19.30;99.90
39503;DHT22;26970;49.900;10.774;2023-08-08T14:59:13;19.30;99.90
39503;DHT22;26970;49.900;10.774;2023-08-08T15:01:38;19.30;99.90
39503;DHT22;26970;49.900;10.774;2023-08-08T15:04:04;19.40;99.90
39503;DHT22;26970;49.900;10.774;2023-08-08T15:06:30;19.30;99.90
39503;DHT22;26970;49.900;10.774;2023-08-08T15:08:55;19.20;99.90
39503;DHT22;26970;49.900;10.774;2023-08-08T15:11:21;19.10;99.90
39503;DHT22;26970;49.900;10.774;2023-08-08T15:13:46;19.10;99.90